Terminal Aerodrome Forecast
Issued by NWS Sterling, VA

Current Version | Previous Version | Text Only | Print | Product List | Glossary Off
Versions: 1 2 3 4 5 6 7 8 9 10 11 12 13 14 15 16 17 18 19 20 21 22 23 24 25 26 27

000
FTUS41 KLWX 010821 AAA
TAFDCA
TAF AMD
KDCA 010821Z 0108/0206 04008KT P6SM VCSH BKN015 OVC030
     FM011000 03010KT P6SM -SHRA BKN035
     FM011300 05008KT P6SM BKN040
     FM020200 VRB04KT P6SM BKN050=

USA.gov is the U.S. government's official web portal to all federal, state and local government web resources and services.